createdAt,value
2019-02-11T00:01:25.179Z,16.70
2019-02-11T00:03:59.573Z,14.00
2019-02-11T00:06:23.404Z,18.37
2019-02-11T00:08:51.662Z,17.20
2019-02-11T00:11:19.916Z,11.78
2019-02-11T00:13:48.167Z,9.93
2019-02-11T00:16:16.413Z,14.37
2019-02-11T00:18:44.653Z,10.20
2019-02-11T00:21:12.917Z,9.43
2019-02-11T00:23:41.807Z,14.85
2019-02-11T00:26:10.067Z,13.80
2019-02-11T00:28:38.308Z,6.93
2019-02-11T00:31:06.564Z,11.93
2019-02-11T00:33:34.820Z,12.97
2019-02-11T00:36:03.070Z,9.67
2019-02-11T00:38:31.320Z,12.70
2019-02-11T00:40:59.576Z,9.33
2019-02-11T00:43:27.826Z,13.97
2019-02-11T00:45:56.153Z,6.47
2019-02-11T00:48:24.394Z,6.80
2019-02-11T00:50:52.648Z,8.63
2019-02-11T00:53:20.906Z,6.27
2019-02-11T00:55:49.158Z,6.83
2019-02-11T00:58:17.393Z,6.13
2019-02-11T01:00:45.653Z,5.17
2019-02-11T01:03:13.897Z,12.03
2019-02-11T01:05:42.152Z,7.37
2019-02-11T01:08:10.404Z,6.00
2019-02-11T01:10:38.648Z,4.03
2019-02-11T01:13:06.917Z,7.03
2019-02-11T01:15:35.158Z,10.70
2019-02-11T01:18:03.409Z,7.08
2019-02-11T01:20:31.658Z,9.07
2019-02-11T01:22:59.986Z,11.00
2019-02-11T01:25:28.232Z,3.72
2019-02-11T01:27:56.481Z,6.17
2019-02-11T01:30:24.740Z,5.60
2019-02-11T01:32:52.994Z,4.40
2019-02-11T01:35:21.550Z,4.90
2019-02-11T01:37:49.788Z,8.28
2019-02-11T01:40:18.032Z,6.03
2019-02-11T01:42:46.288Z,8.63
2019-02-11T01:45:14.533Z,2.35
2019-02-11T01:47:42.787Z,10.98
2019-02-11T01:50:12.460Z,6.78
2019-02-11T01:52:40.709Z,7.10
2019-02-11T01:55:08.941Z,4.30
2019-02-11T01:57:37.188Z,2.33
2019-02-11T02:00:08.639Z,8.23
2019-02-11T02:02:36.885Z,4.03
2019-02-11T02:05:06.871Z,3.60
2019-02-11T02:07:35.116Z,8.33
2019-02-11T02:10:04.625Z,5.90
2019-02-11T02:12:32.860Z,7.00
2019-02-11T02:15:01.104Z,6.03
2019-02-11T02:17:29.340Z,7.80
2019-02-11T02:19:57.588Z,3.12
2019-02-11T02:22:25.824Z,2.75
2019-02-11T02:24:54.072Z,3.13
2019-02-11T02:27:22.318Z,8.13
2019-02-11T02:29:50.568Z,6.40
2019-02-11T02:32:18.819Z,6.27
2019-02-11T02:34:47.086Z,9.53
2019-02-11T02:37:15.342Z,8.45
2019-02-11T02:39:43.574Z,12.47
2019-02-11T02:42:11.824Z,9.70
2019-02-11T02:44:40.065Z,6.17
2019-02-11T02:47:08.317Z,11.13
2019-02-11T02:49:36.553Z,5.60
2019-02-11T02:52:04.813Z,6.10
2019-02-11T02:54:33.060Z,5.30
2019-02-11T02:57:01.308Z,8.08
2019-02-11T02:59:29.556Z,13.15
2019-02-11T03:01:57.805Z,6.03
2019-02-11T03:04:26.043Z,9.90
2019-02-11T03:06:54.305Z,8.10
2019-02-11T03:09:22.552Z,7.87
2019-02-11T03:11:50.804Z,14.07
2019-02-11T03:14:19.069Z,15.40
2019-02-11T03:16:47.303Z,8.58
2019-02-11T03:19:15.543Z,11.07
2019-02-11T03:21:43.814Z,10.17
2019-02-11T03:24:12.066Z,10.63
2019-02-11T03:26:40.318Z,9.48
2019-02-11T03:29:08.561Z,6.90
2019-02-11T03:31:36.822Z,10.50
2019-02-11T03:34:05.063Z,14.03
2019-02-11T03:36:33.316Z,12.85
2019-02-11T03:39:01.580Z,17.93
2019-02-11T03:41:29.846Z,12.57
2019-02-11T03:43:58.089Z,5.97
2019-02-11T03:46:26.327Z,6.70
2019-02-11T03:48:54.584Z,10.57
2019-02-11T03:51:22.849Z,9.93
2019-02-11T03:53:51.096Z,18.40
2019-02-11T03:56:19.347Z,19.50
2019-02-11T03:58:47.592Z,11.33
2019-02-11T04:01:17.377Z,10.53
2019-02-11T04:03:45.627Z,9.72
2019-02-11T04:06:13.890Z,11.90
2019-02-11T04:08:42.139Z,13.73
2019-02-11T04:11:10.408Z,11.50
2019-02-11T04:13:38.825Z,13.90
2019-02-11T04:16:07.089Z,14.43
2019-02-11T04:18:35.327Z,6.30
2019-02-11T04:21:03.584Z,10.70
2019-02-11T04:23:31.839Z,7.03
2019-02-11T04:26:00.071Z,8.00
2019-02-11T04:28:28.324Z,7.30
2019-02-11T04:30:56.582Z,7.20
2019-02-11T04:33:24.844Z,6.10
2019-02-11T04:35:53.091Z,13.53
2019-02-11T04:38:21.341Z,13.60
2019-02-11T04:40:49.591Z,9.73
2019-02-11T04:43:17.830Z,7.33
2019-02-11T04:45:46.099Z,19.77
2019-02-11T04:48:14.336Z,11.90
2019-02-11T04:50:42.656Z,9.30
2019-02-11T04:53:10.890Z,7.87
2019-02-11T04:55:39.143Z,11.30
2019-02-11T04:58:07.402Z,12.60
2019-02-11T05:00:35.658Z,10.05
2019-02-11T05:03:03.899Z,13.23
2019-02-11T05:05:32.171Z,17.00
2019-02-11T05:08:00.421Z,14.23
2019-02-11T05:10:28.664Z,14.57
2019-02-11T05:12:56.932Z,17.33
2019-02-11T05:15:25.163Z,4.25
2019-02-11T05:17:53.431Z,17.52
2019-02-11T05:20:21.673Z,12.75
2019-02-11T05:22:49.936Z,15.13
2019-02-11T05:25:18.204Z,16.87
2019-02-11T05:27:46.454Z,8.15
2019-02-11T05:30:14.704Z,12.28
2019-02-11T05:32:42.959Z,12.60
2019-02-11T05:35:14.208Z,13.60
2019-02-11T05:37:44.142Z,7.20
2019-02-11T05:40:12.737Z,8.23
2019-02-11T05:42:40.977Z,12.10
2019-02-11T05:45:09.394Z,14.50
2019-02-11T05:47:37.659Z,13.70
2019-02-11T05:50:11.252Z,15.23
2019-02-11T05:52:39.496Z,9.77
2019-02-11T05:55:08.208Z,12.40
2019-02-11T05:57:36.460Z,12.78
2019-02-11T06:00:08.015Z,13.10
2019-02-11T06:02:36.275Z,14.67
2019-02-11T06:05:06.346Z,14.10
2019-02-11T06:07:34.599Z,10.83
2019-02-11T06:10:03.032Z,12.63
2019-02-11T06:12:31.281Z,22.23
2019-02-11T06:15:04.191Z,16.23
2019-02-11T06:17:29.477Z,7.25
2019-02-11T06:19:57.729Z,10.70
2019-02-11T06:22:25.985Z,13.63
2019-02-11T06:24:54.285Z,16.67
2019-02-11T06:27:22.485Z,13.90
2019-02-11T06:29:50.730Z,11.60
2019-02-11T06:32:18.977Z,17.57
2019-02-11T06:34:47.217Z,14.50
2019-02-11T06:37:17.099Z,12.30
2019-02-11T06:39:45.344Z,14.83
2019-02-11T06:42:13.597Z,15.23
2019-02-11T06:44:41.907Z,11.00
2019-02-11T06:47:10.177Z,15.70
2019-02-11T06:49:38.433Z,21.90
2019-02-11T06:52:06.753Z,16.50
2019-02-11T06:54:34.997Z,17.63
2019-02-11T06:57:04.297Z,16.77
2019-02-11T06:59:32.601Z,10.08
2019-02-11T07:02:00.850Z,15.88
2019-02-11T07:04:36.139Z,14.03
2019-02-11T07:07:04.389Z,13.90
2019-02-11T07:09:32.645Z,15.73
2019-02-11T07:12:00.921Z,15.33
2019-02-11T07:14:29.158Z,9.05
2019-02-11T07:16:57.462Z,15.08
2019-02-11T07:19:25.706Z,14.50
2019-02-11T07:21:53.938Z,9.87
2019-02-11T07:24:22.198Z,15.30
2019-02-11T07:26:50.485Z,15.07
2019-02-11T07:29:18.697Z,15.17
2019-02-11T07:31:46.952Z,14.00
2019-02-11T07:34:15.196Z,19.00
2019-02-11T07:36:43.484Z,7.40
2019-02-11T07:39:11.989Z,10.85
2019-02-11T07:49:57.073Z,15.70
2019-02-11T07:52:26.809Z,18.47
2019-02-11T07:54:55.310Z,22.87
2019-02-11T07:58:03.610Z,12.80
2019-02-11T08:00:31.850Z,13.67
2019-02-11T08:03:00.104Z,9.73
2019-02-11T08:05:28.357Z,18.60
2019-02-11T08:07:56.620Z,16.70
2019-02-11T08:10:24.878Z,17.53
2019-02-11T08:12:53.126Z,14.10
2019-02-11T08:15:21.390Z,20.90
2019-02-11T08:17:49.628Z,18.40
2019-02-11T08:20:17.872Z,7.73
2019-02-11T08:22:46.116Z,15.13
2019-02-11T08:25:14.360Z,15.30
2019-02-11T08:27:42.602Z,16.57
2019-02-11T08:30:44.590Z,16.13
2019-02-11T08:33:12.859Z,12.30
2019-02-11T08:35:41.115Z,15.40
2019-02-11T08:38:09.389Z,19.80
2019-02-11T08:40:37.635Z,19.90
2019-02-11T08:43:05.926Z,14.97
2019-02-11T08:45:34.201Z,13.63
2019-02-11T08:48:02.463Z,9.47
2019-02-11T08:50:30.731Z,14.77
2019-02-11T08:52:59.002Z,18.63
2019-02-11T08:55:27.279Z,10.03
2019-02-11T08:58:35.527Z,7.43
2019-02-11T09:01:03.787Z,12.30
2019-02-11T09:03:32.132Z,6.12
2019-02-11T09:06:00.383Z,6.90
2019-02-11T09:08:28.628Z,11.70
2019-02-11T09:10:56.901Z,19.87
2019-02-11T09:13:25.180Z,16.37
2019-02-11T09:15:55.384Z,14.60
2019-02-11T09:18:23.407Z,14.43
2019-02-11T09:20:51.699Z,14.00
2019-02-11T09:23:19.950Z,22.23
2019-02-11T09:25:48.199Z,24.45
2019-02-11T09:28:16.462Z,11.87
2019-02-11T09:30:44.734Z,13.43
2019-02-11T09:33:53.010Z,17.00
2019-02-11T09:36:21.304Z,19.70
2019-02-11T09:38:49.548Z,17.12
2019-02-11T09:41:17.818Z,14.13
2019-02-11T09:43:46.064Z,13.28
2019-02-11T09:46:14.308Z,14.13
2019-02-11T09:48:42.576Z,19.47
2019-02-11T09:51:11.484Z,20.05
2019-02-11T09:53:40.602Z,9.03
2019-02-11T09:56:08.854Z,22.48
2019-02-11T09:58:38.172Z,16.97
2019-02-11T10:01:47.209Z,25.15
2019-02-11T10:04:15.467Z,24.63
2019-02-11T10:06:43.760Z,22.50
2019-02-11T10:09:31.331Z,17.87
2019-02-11T10:11:59.580Z,8.90
2019-02-11T10:14:27.835Z,12.60
2019-02-11T10:16:56.086Z,14.03
2019-02-11T10:19:24.342Z,14.03
2019-02-11T10:21:52.606Z,20.48
2019-02-11T10:24:20.844Z,10.30
2019-02-11T10:26:49.102Z,10.77
2019-02-11T10:29:17.362Z,11.90
2019-02-11T10:31:45.655Z,13.20
2019-02-11T10:34:13.936Z,14.57
2019-02-11T10:36:42.188Z,12.63
2019-02-11T10:39:10.455Z,14.38
2019-02-11T10:41:38.715Z,14.63
2019-02-11T10:44:06.973Z,9.33
2019-02-11T10:46:35.224Z,13.37
2019-02-11T10:49:03.546Z,13.50
2019-02-11T10:51:31.828Z,11.27
2019-02-11T10:54:00.096Z,13.93
2019-02-11T10:56:28.390Z,10.08
2019-02-11T10:58:56.677Z,14.58
2019-02-11T11:01:24.942Z,11.57
2019-02-11T11:03:53.198Z,13.08
2019-02-11T11:06:21.481Z,21.10
2019-02-11T11:08:49.760Z,6.80
2019-02-11T11:11:18.031Z,9.68
2019-02-11T11:13:46.297Z,11.73
2019-02-11T11:16:14.570Z,5.47
2019-02-11T11:18:42.859Z,11.87
2019-02-11T11:21:51.152Z,7.60
2019-02-11T11:24:19.414Z,7.17
2019-02-11T11:26:47.711Z,5.90
2019-02-11T11:29:15.979Z,4.00
2019-02-11T11:31:44.292Z,2.60
2019-02-11T11:34:12.569Z,3.07
2019-02-11T11:36:40.838Z,2.67
2019-02-11T11:41:48.116Z,3.10
2019-02-11T11:44:16.428Z,7.83
2019-02-11T11:46:47.160Z,4.30
2019-02-11T11:49:14.697Z,4.93
2019-02-11T11:51:42.972Z,1.77
2019-02-11T11:54:11.227Z,7.03
2019-02-11T11:56:39.571Z,1.97
2019-02-11T11:59:07.843Z,11.13
2019-02-11T12:01:36.101Z,2.60
2019-02-11T12:04:06.700Z,4.83
2019-02-11T12:06:34.428Z,10.72
2019-02-11T12:11:52.225Z,4.15
2019-02-11T12:14:20.477Z,6.90
2019-02-11T12:16:56.768Z,2.30
2019-02-11T12:19:18.768Z,4.13
2019-02-11T12:22:06.420Z,2.00
2019-02-11T12:24:34.686Z,5.20
2019-02-11T12:27:02.962Z,5.07
2019-02-11T12:29:31.303Z,1.70
2019-02-11T12:31:59.547Z,2.70
2019-02-11T12:34:27.817Z,8.70
2019-02-11T12:36:56.085Z,7.07
2019-02-11T12:39:24.329Z,2.67
2019-02-11T12:41:52.584Z,4.03
2019-02-11T12:44:20.835Z,7.07
2019-02-11T12:46:49.099Z,2.97
2019-02-11T12:49:17.387Z,4.20
2019-02-11T12:51:45.652Z,9.80
2019-02-11T12:54:13.919Z,2.70
2019-02-11T12:56:42.162Z,4.33
2019-02-11T12:59:10.428Z,3.15
2019-02-11T13:01:38.695Z,8.70
2019-02-11T13:04:06.942Z,4.93
2019-02-11T13:06:35.176Z,5.60
2019-02-11T13:12:04.999Z,3.37
2019-02-11T13:14:33.270Z,6.05
2019-02-11T13:17:14.205Z,6.80
2019-02-11T13:19:31.552Z,5.08
2019-02-11T13:21:59.817Z,4.83
2019-02-11T13:24:28.094Z,3.13
2019-02-11T13:26:56.346Z,3.90
2019-02-11T13:29:24.641Z,5.00
2019-02-11T13:31:52.954Z,7.70
2019-02-11T13:34:21.258Z,3.03
2019-02-11T13:36:49.519Z,3.67
2019-02-11T13:39:17.785Z,5.73
2019-02-11T13:42:26.072Z,5.60
2019-02-11T13:44:54.321Z,10.43
2019-02-11T13:47:22.615Z,4.20
2019-02-11T13:49:50.882Z,4.73
2019-02-11T13:52:59.183Z,6.13
2019-02-11T13:55:30.673Z,10.27
2019-02-11T13:58:37.479Z,4.05
2019-02-11T14:01:39.047Z,4.40
2019-02-11T14:04:07.296Z,5.12
2019-02-11T14:06:35.588Z,7.73
2019-02-11T14:12:24.664Z,2.93
2019-02-11T14:14:52.927Z,5.53
2019-02-11T14:17:21.214Z,3.00
2019-02-11T14:19:49.522Z,3.10
2019-02-11T14:22:17.746Z,4.25
2019-02-11T14:24:46.025Z,7.70
2019-02-11T14:27:14.359Z,4.58
2019-02-11T14:29:42.612Z,3.93
2019-02-11T14:32:10.867Z,5.83
2019-02-11T14:34:39.119Z,3.00
2019-02-11T14:37:07.376Z,4.07
2019-02-11T14:39:35.646Z,11.10
2019-02-11T14:42:03.918Z,6.87
2019-02-11T14:44:32.173Z,4.23
2019-02-11T14:47:00.433Z,4.27
2019-02-11T14:49:28.717Z,3.53
2019-02-11T14:51:57.005Z,4.30
2019-02-11T14:54:25.244Z,2.87
2019-02-11T14:56:53.491Z,6.90
2019-02-11T14:59:21.744Z,4.93
2019-02-11T15:01:50.019Z,6.53
2019-02-11T15:04:18.380Z,4.27
2019-02-11T15:06:46.668Z,3.17
2019-02-11T15:09:14.943Z,4.60
2019-02-11T15:11:43.202Z,4.83
2019-02-11T15:14:11.456Z,4.30
2019-02-11T15:16:39.730Z,3.77
2019-02-11T15:19:08.024Z,9.37
2019-02-11T15:21:36.287Z,2.60
2019-02-11T15:24:04.541Z,4.60
2019-02-11T15:26:32.830Z,6.47
2019-02-11T15:29:01.061Z,3.73
2019-02-11T15:31:29.344Z,6.30
2019-02-11T15:33:57.594Z,9.18
2019-02-11T15:36:25.842Z,7.50
2019-02-11T15:38:54.106Z,11.87
2019-02-11T15:41:22.347Z,6.43
2019-02-11T15:43:50.616Z,7.60
2019-02-11T15:46:18.874Z,5.20
2019-02-11T15:48:47.131Z,4.77
2019-02-11T15:51:15.423Z,8.20
2019-02-11T15:53:43.649Z,6.17
2019-02-11T15:56:11.931Z,12.67
2019-02-11T15:58:40.237Z,6.37
2019-02-11T16:01:08.555Z,6.97
2019-02-11T16:03:36.827Z,11.03
2019-02-11T16:06:10.171Z,10.00
2019-02-11T16:08:35.374Z,6.53
2019-02-11T16:11:03.639Z,8.43
2019-02-11T16:13:31.897Z,6.50
2019-02-11T16:16:00.156Z,7.50
2019-02-11T16:18:28.421Z,6.65
2019-02-11T16:20:56.672Z,7.00
2019-02-11T16:23:24.946Z,5.70
2019-02-11T16:25:53.191Z,7.27
2019-02-11T16:28:21.456Z,7.35
2019-02-11T16:30:49.740Z,15.10
2019-02-11T16:33:18.016Z,10.43
2019-02-11T16:35:46.265Z,14.17
2019-02-11T16:38:14.560Z,15.67
2019-02-11T16:40:42.796Z,8.10
2019-02-11T16:43:11.055Z,7.90
2019-02-11T16:45:39.341Z,14.55
2019-02-11T16:50:46.513Z,6.58
2019-02-11T16:53:14.778Z,7.80
2019-02-11T16:55:43.026Z,10.10
2019-02-11T16:58:11.283Z,11.37
2019-02-11T17:00:39.559Z,8.27
2019-02-11T17:03:07.825Z,12.50
2019-02-11T17:05:36.073Z,9.93
2019-02-11T17:08:04.354Z,10.23
2019-02-11T17:10:32.623Z,10.37
2019-02-11T17:13:00.863Z,7.93
2019-02-11T17:15:29.177Z,14.53
2019-02-11T17:17:57.456Z,14.97
2019-02-11T17:20:25.667Z,6.37
2019-02-11T17:22:53.933Z,8.27
2019-02-11T17:25:22.324Z,3.10
2019-02-11T17:27:50.576Z,8.35
2019-02-11T17:30:39.128Z,4.93
2019-02-11T17:33:07.375Z,9.97
2019-02-11T17:35:35.657Z,10.82
2019-02-11T17:38:03.901Z,12.05
2019-02-11T17:40:32.163Z,8.08
2019-02-11T17:43:00.412Z,11.20
2019-02-11T17:46:08.703Z,8.43
2019-02-11T17:48:36.975Z,10.70
2019-02-11T17:51:05.254Z,8.75
2019-02-11T17:53:33.593Z,20.20
2019-02-11T17:56:01.836Z,7.77
2019-02-11T17:58:30.123Z,4.80
2019-02-11T18:03:37.286Z,4.67
2019-02-11T18:06:05.627Z,6.53
2019-02-11T18:08:33.830Z,10.60
2019-02-11T18:11:02.078Z,11.07
2019-02-11T18:13:30.337Z,11.38
2019-02-11T18:15:58.585Z,12.28
2019-02-11T18:18:26.825Z,5.43
2019-02-11T18:20:55.081Z,10.90
2019-02-11T18:23:42.668Z,9.43
2019-02-11T18:26:10.914Z,8.03
2019-02-11T18:28:58.531Z,8.05
2019-02-11T18:31:26.804Z,12.35
2019-02-11T18:33:55.093Z,15.20
2019-02-11T18:36:23.327Z,10.70
2019-02-11T18:38:51.607Z,12.90
2019-02-11T18:41:19.863Z,6.95
2019-02-11T18:43:48.111Z,9.00
2019-02-11T18:46:16.397Z,10.73
2019-02-11T18:48:44.655Z,8.63
2019-02-11T18:51:12.912Z,15.80
2019-02-11T18:53:41.278Z,14.40
2019-02-11T18:56:09.529Z,9.93
2019-02-11T18:58:37.786Z,9.45
2019-02-11T19:01:06.044Z,13.43
2019-02-11T19:06:53.280Z,17.60
2019-02-11T19:09:21.543Z,11.00
2019-02-11T19:11:49.820Z,8.97
2019-02-11T19:14:20.387Z,4.70
2019-02-11T19:16:48.758Z,8.53
2019-02-11T19:21:55.951Z,10.13
2019-02-11T19:24:24.216Z,11.68
2019-02-11T19:26:52.481Z,11.55
2019-02-11T19:29:22.935Z,11.63
2019-02-11T19:32:31.236Z,14.07
2019-02-11T19:35:33.521Z,5.70
2019-02-11T19:38:01.782Z,7.78
2019-02-11T19:40:30.081Z,4.60
2019-02-11T19:45:45.968Z,12.60
2019-02-11T19:48:14.236Z,10.80
2019-02-11T19:50:42.493Z,10.70
2019-02-11T19:53:11.081Z,12.53
2019-02-11T19:55:40.194Z,5.65
2019-02-11T19:58:08.694Z,12.70
2019-02-11T20:00:36.955Z,6.53
2019-02-11T20:03:05.206Z,6.83
2019-02-11T20:08:54.785Z,8.50
2019-02-11T20:11:23.329Z,11.10
2019-02-11T20:13:51.559Z,7.63
2019-02-11T20:16:19.828Z,6.60
2019-02-11T20:18:48.846Z,8.70
2019-02-11T20:21:17.342Z,4.03
2019-02-11T20:23:45.605Z,6.85
2019-02-11T20:26:13.859Z,6.23
2019-02-11T20:29:22.210Z,4.63
2019-02-11T20:31:50.458Z,8.50
2019-02-11T20:34:18.710Z,10.27
2019-02-11T20:36:46.990Z,5.50
2019-02-11T20:39:15.295Z,5.50
2019-02-11T20:41:43.818Z,7.47
2019-02-11T20:44:12.083Z,10.80
2019-02-11T20:46:40.353Z,9.23
2019-02-11T20:49:10.323Z,5.50
2019-02-11T20:52:18.433Z,4.42
2019-02-11T20:54:46.929Z,5.20
2019-02-11T20:57:16.822Z,4.37
2019-02-11T20:59:45.086Z,4.90
2019-02-11T21:02:13.377Z,13.63
2019-02-11T21:04:41.632Z,4.60
2019-02-11T21:07:09.873Z,6.50
2019-02-11T21:09:38.130Z,8.73
2019-02-11T21:12:06.393Z,9.17
2019-02-11T21:17:21.953Z,6.75
2019-02-11T21:19:50.199Z,6.60
2019-02-11T21:22:18.474Z,8.77
2019-02-11T21:24:46.944Z,9.73
2019-02-11T21:27:16.776Z,8.23
2019-02-11T21:29:45.015Z,8.50
2019-02-11T21:32:13.262Z,10.97
2019-02-11T21:34:41.514Z,6.55
2019-02-11T21:37:09.782Z,18.13
2019-02-11T21:39:38.030Z,8.45
2019-02-11T21:42:06.280Z,9.10
2019-02-11T21:44:34.539Z,11.13
2019-02-11T21:47:02.788Z,7.93
2019-02-11T21:49:31.048Z,8.07
2019-02-11T21:51:59.314Z,6.72
2019-02-11T21:54:27.544Z,6.28
2019-02-11T21:56:55.804Z,9.68
2019-02-11T21:59:24.076Z,5.87
2019-02-11T22:01:52.305Z,9.78
2019-02-11T22:04:20.555Z,10.83
2019-02-11T22:06:48.812Z,6.70
2019-02-11T22:09:17.085Z,7.73
2019-02-11T22:11:45.324Z,6.43
2019-02-11T22:14:53.617Z,5.12
2019-02-11T22:17:21.840Z,7.17
2019-02-11T22:19:50.090Z,10.10
2019-02-11T22:22:18.344Z,5.35
2019-02-11T22:24:46.601Z,5.63
2019-02-11T22:27:14.842Z,5.67
2019-02-11T22:29:43.108Z,6.30
2019-02-11T22:32:11.341Z,3.57
2019-02-11T22:34:39.595Z,15.33
2019-02-11T22:37:07.846Z,10.10
2019-02-11T22:39:36.095Z,2.70
2019-02-11T22:42:04.342Z,8.33
2019-02-11T22:44:32.588Z,7.63
2019-02-11T22:47:00.843Z,9.93
2019-02-11T22:49:29.090Z,10.67
2019-02-11T22:51:57.338Z,9.93
2019-02-11T22:54:25.587Z,10.10
2019-02-11T22:56:53.827Z,6.33
2019-02-11T22:59:22.090Z,10.20
2019-02-11T23:01:50.333Z,13.73
2019-02-11T23:04:18.574Z,10.20
2019-02-11T23:06:46.849Z,7.05
2019-02-11T23:09:15.086Z,7.60
2019-02-11T23:11:43.337Z,2.23
2019-02-11T23:14:12.387Z,2.12
2019-02-11T23:16:40.634Z,6.50
2019-02-11T23:19:08.882Z,1.90
2019-02-11T23:21:37.143Z,7.20
2019-02-11T23:24:05.386Z,5.12
2019-02-11T23:26:33.644Z,3.70
2019-02-11T23:29:01.899Z,4.20
2019-02-11T23:31:30.145Z,5.33
2019-02-11T23:33:58.397Z,4.78
2019-02-11T23:36:26.660Z,6.03
2019-02-11T23:38:54.911Z,8.33
2019-02-11T23:41:23.147Z,7.97
2019-02-11T23:43:51.392Z,4.95
2019-02-11T23:46:19.631Z,6.37
2019-02-11T23:48:47.873Z,4.80
2019-02-11T23:51:16.114Z,9.65
2019-02-11T23:53:44.388Z,7.22
2019-02-11T23:56:12.624Z,3.90
2019-02-11T23:58:40.863Z,7.23
